sensor_id;sensor_type;location;lat;lon;timestamp;pressure;altitude;pressure_sealevel;temperature;humidity
77583;BME280;66726;52.388;9.986;2023-06-22T00:00:31;101276.97;;;21.42;64.05
77583;BME280;66726;52.388;9.986;2023-06-22T00:03:02;101262.53;;;21.35;64.15
77583;BME280;66726;52.388;9.986;2023-06-22T00:05:34;101262.53;;;21.35;64.37
77583;BME280;66726;52.388;9.986;2023-06-22T00:08:08;101265.31;;;21.28;64.86
77583;BME280;66726;52.388;9.986;2023-06-22T00:10:39;101265.13;;;21.23;64.85
77583;BME280;66726;52.388;9.986;2023-06-22T00:13:12;101270.34;;;21.24;64.81
77583;BME280;66726;52.388;9.986;2023-06-22T00:15:45;101274.44;;;20.96;66.06
77583;BME280;66726;52.388;9.986;2023-06-22T00:18:17;101270.03;;;20.95;65.73
77583;BME280;66726;52.388;9.986;2023-06-22T00:20:49;101269.00;;;20.96;65.40
77583;BME280;66726;52.388;9.986;2023-06-22T00:23:21;101280.91;;;21.01;64.52
77583;BME280;66726;52.388;9.986;2023-06-22T00:25:54;101284.47;;;21.02;64.67
77583;BME280;66726;52.388;9.986;2023-06-22T00:28:26;101285.31;;;20.96;64.92
77583;BME280;66726;52.388;9.986;2023-06-22T00:31:00;101283.00;;;20.93;65.09
77583;BME280;66726;52.388;9.986;2023-06-22T00:33:32;101283.88;;;20.87;65.31
77583;BME280;66726;52.388;9.986;2023-06-22T00:36:04;101303.59;;;20.82;65.15
77583;BME280;66726;52.388;9.986;2023-06-22T00:38:36;101292.28;;;20.79;65.17
77583;BME280;66726;52.388;9.986;2023-06-22T00:41:10;101301.25;;;20.86;65.19
77583;BME280;66726;52.388;9.986;2023-06-22T00:43:42;101302.28;;;20.91;65.08
77583;BME280;66726;52.388;9.986;2023-06-22T00:46:15;101302.53;;;20.83;64.64
77583;BME280;66726;52.388;9.986;2023-06-22T00:48:47;101304.22;;;20.78;65.11
77583;BME280;66726;52.388;9.986;2023-06-22T00:51:19;101295.00;;;20.72;65.41
77583;BME280;66726;52.388;9.986;2023-06-22T00:53:54;101287.50;;;20.67;65.62
77583;BME280;66726;52.388;9.986;2023-06-22T00:56:27;101280.19;;;20.61;65.71
77583;BME280;66726;52.388;9.986;2023-06-22T00:59:01;101274.97;;;20.53;66.14
77583;BME280;66726;52.388;9.986;2023-06-22T01:01:35;101273.69;;;20.56;65.94
77583;BME280;66726;52.388;9.986;2023-06-22T01:04:11;101268.72;;;20.46;66.39
77583;BME280;66726;52.388;9.986;2023-06-22T01:06:54;101258.88;;;20.45;65.84
77583;BME280;66726;52.388;9.986;2023-06-22T01:09:40;101267.88;;;20.39;66.46
77583;BME280;66726;52.388;9.986;2023-06-22T01:12:16;101258.25;;;20.43;66.54
77583;BME280;66726;52.388;9.986;2023-06-22T01:14:58;101253.84;;;20.42;65.94
77583;BME280;66726;52.388;9.986;2023-06-22T01:17:36;101255.75;;;20.29;66.56
77583;BME280;66726;52.388;9.986;2023-06-22T01:20:15;101253.03;;;20.22;66.83
77583;BME280;66726;52.388;9.986;2023-06-22T01:23:02;101253.03;;;20.22;66.69
77583;BME280;66726;52.388;9.986;2023-06-22T01:25:45;101258.47;;;20.15;66.89
77583;BME280;66726;52.388;9.986;2023-06-22T01:28:39;101251.56;;;20.26;66.35
77583;BME280;66726;52.388;9.986;2023-06-22T01:31:16;101250.13;;;20.17;67.08
77583;BME280;66726;52.388;9.986;2023-06-22T01:33:51;101242.56;;;20.19;66.35
77583;BME280;66726;52.388;9.986;2023-06-22T01:36:24;101229.59;;;20.08;67.02
77583;BME280;66726;52.388;9.986;2023-06-22T01:38:58;101229.59;;;20.08;66.86
77583;BME280;66726;52.388;9.986;2023-06-22T01:41:33;101235.69;;;20.03;66.76
77583;BME280;66726;52.388;9.986;2023-06-22T01:44:10;101236.72;;;20.02;66.89
77583;BME280;66726;52.388;9.986;2023-06-22T01:46:43;101232.56;;;20.00;67.00
77583;BME280;66726;52.388;9.986;2023-06-22T01:49:17;101232.56;;;20.00;66.94
77583;BME280;66726;52.388;9.986;2023-06-22T01:51:49;101231.72;;;19.99;66.92
77583;BME280;66726;52.388;9.986;2023-06-22T01:54:21;101225.22;;;19.94;67.13
77583;BME280;66726;52.388;9.986;2023-06-22T01:56:53;101223.34;;;19.94;67.27
77583;BME280;66726;52.388;9.986;2023-06-22T01:59:34;101220.63;;;19.88;67.25
77583;BME280;66726;52.388;9.986;2023-06-22T02:02:11;101237.13;;;19.73;67.67
77583;BME280;66726;52.388;9.986;2023-06-22T02:04:51;101238.41;;;19.84;67.22
77583;BME280;66726;52.388;9.986;2023-06-22T02:07:26;101236.94;;;19.88;66.77
77583;BME280;66726;52.388;9.986;2023-06-22T02:10:02;101239.03;;;19.86;67.31
77583;BME280;66726;52.388;9.986;2023-06-22T02:12:36;101227.09;;;19.87;67.06
77583;BME280;66726;52.388;9.986;2023-06-22T02:15:12;101246.78;;;19.89;67.23
77583;BME280;66726;52.388;9.986;2023-06-22T02:17:44;101245.09;;;19.88;66.94
77583;BME280;66726;52.388;9.986;2023-06-22T02:20:16;101248.44;;;19.90;66.91
77583;BME280;66726;52.388;9.986;2023-06-22T02:22:48;101245.09;;;19.88;67.31
77583;BME280;66726;52.388;9.986;2023-06-22T02:25:20;101238.41;;;19.84;67.60
77583;BME280;66726;52.388;9.986;2023-06-22T02:27:52;101243.63;;;19.79;67.66
77583;BME280;66726;52.388;9.986;2023-06-22T02:30:25;101242.16;;;19.76;67.74
77583;BME280;66726;52.388;9.986;2023-06-22T02:32:58;101249.06;;;19.72;67.86
77583;BME280;66726;52.388;9.986;2023-06-22T02:35:31;101246.34;;;19.65;67.86
77583;BME280;66726;52.388;9.986;2023-06-22T02:38:06;101246.34;;;19.72;67.96
77583;BME280;66726;52.388;9.986;2023-06-22T02:40:38;101247.38;;;19.64;68.08
77583;BME280;66726;52.388;9.986;2023-06-22T02:43:10;101247.38;;;19.64;68.13
77583;BME280;66726;52.388;9.986;2023-06-22T02:45:43;101258.25;;;19.64;68.35
77583;BME280;66726;52.388;9.986;2023-06-22T02:48:15;101268.47;;;19.62;68.32
77583;BME280;66726;52.388;9.986;2023-06-22T02:50:47;101273.28;;;19.60;68.48
77583;BME280;66726;52.388;9.986;2023-06-22T02:53:19;101276.00;;;19.60;68.23
77583;BME280;66726;52.388;9.986;2023-06-22T02:55:51;101279.31;;;19.56;68.57
77583;BME280;66726;52.388;9.986;2023-06-22T02:58:23;101281.63;;;19.59;68.56
77583;BME280;66726;52.388;9.986;2023-06-22T03:00:57;101284.75;;;19.56;68.58
77583;BME280;66726;52.388;9.986;2023-06-22T03:03:35;101294.38;;;19.58;68.51
77583;BME280;66726;52.388;9.986;2023-06-22T03:06:07;101295.19;;;19.52;68.88
77583;BME280;66726;52.388;9.986;2023-06-22T03:08:44;101290.59;;;19.46;68.78
77583;BME280;66726;52.388;9.986;2023-06-22T03:11:16;101294.97;;;19.47;68.83
77583;BME280;66726;52.388;9.986;2023-06-22T03:13:48;101298.09;;;19.44;68.60
77583;BME280;66726;52.388;9.986;2023-06-22T03:16:21;101297.47;;;19.42;69.20
77583;BME280;66726;52.388;9.986;2023-06-22T03:18:53;101298.09;;;19.44;68.86
77583;BME280;66726;52.388;9.986;2023-06-22T03:21:30;101302.25;;;19.40;69.21
77583;BME280;66726;52.388;9.986;2023-06-22T03:24:02;101302.66;;;19.37;69.44
77583;BME280;66726;52.388;9.986;2023-06-22T03:26:34;101296.78;;;19.27;69.49
77583;BME280;66726;52.388;9.986;2023-06-22T03:29:06;101297.63;;;19.34;69.00
77583;BME280;66726;52.388;9.986;2023-06-22T03:31:39;101289.69;;;19.33;68.96
77583;BME280;66726;52.388;9.986;2023-06-22T03:34:11;101300.53;;;19.33;69.48
77583;BME280;66726;52.388;9.986;2023-06-22T03:36:43;101298.66;;;19.33;69.41
77583;BME280;66726;52.388;9.986;2023-06-22T03:39:16;101303.06;;;19.34;69.47
77583;BME280;66726;52.388;9.986;2023-06-22T03:41:48;101301.78;;;19.30;69.42
77583;BME280;66726;52.388;9.986;2023-06-22T03:44:20;101292.81;;;19.30;69.75
77583;BME280;66726;52.388;9.986;2023-06-22T03:46:53;101289.91;;;19.31;69.65
77583;BME280;66726;52.388;9.986;2023-06-22T03:49:25;101291.34;;;19.27;69.64
77583;BME280;66726;52.388;9.986;2023-06-22T03:51:56;101299.47;;;19.27;69.60
77583;BME280;66726;52.388;9.986;2023-06-22T03:54:42;101295.31;;;19.31;69.58
77583;BME280;66726;52.388;9.986;2023-06-22T03:57:14;101295.31;;;19.31;69.33
77583;BME280;66726;52.388;9.986;2023-06-22T03:59:46;101300.53;;;19.33;69.81
77583;BME280;66726;52.388;9.986;2023-06-22T04:02:19;101290.94;;;19.30;70.28
77583;BME280;66726;52.388;9.986;2023-06-22T04:04:51;101294.25;;;19.32;70.15
77583;BME280;66726;52.388;9.986;2023-06-22T04:07:23;101288.84;;;19.32;69.93
77583;BME280;66726;52.388;9.986;2023-06-22T04:09:55;101293.00;;;19.28;70.52
77583;BME280;66726;52.388;9.986;2023-06-22T04:12:26;101303.22;;;19.26;70.39
77583;BME280;66726;52.388;9.986;2023-06-22T04:14:58;101297.59;;;19.21;70.66
77583;BME280;66726;52.388;9.986;2023-06-22T04:17:32;101300.69;;;19.18;71.10
77583;BME280;66726;52.388;9.986;2023-06-22T04:20:04;101295.09;;;19.26;70.02
77583;BME280;66726;52.388;9.986;2023-06-22T04:22:36;101290.94;;;19.30;70.01
77583;BME280;66726;52.388;9.986;2023-06-22T04:25:09;101286.78;;;19.34;70.42
77583;BME280;66726;52.388;9.986;2023-06-22T04:27:41;101283.00;;;19.35;70.49
77583;BME280;66726;52.388;9.986;2023-06-22T04:30:14;101290.94;;;19.37;70.34
77583;BME280;66726;52.388;9.986;2023-06-22T04:32:49;101288.22;;;19.37;70.79
77583;BME280;66726;52.388;9.986;2023-06-22T04:35:28;101290.53;;;19.40;70.54
77583;BME280;66726;52.388;9.986;2023-06-22T04:38:02;101292.25;;;19.41;71.08
77583;BME280;66726;52.388;9.986;2023-06-22T04:40:34;101289.69;;;19.39;71.60
77583;BME280;66726;52.388;9.986;2023-06-22T04:43:06;101291.38;;;19.40;71.29
77583;BME280;66726;52.388;9.986;2023-06-22T04:45:38;101293.09;;;19.41;70.98
77583;BME280;66726;52.388;9.986;2023-06-22T04:48:11;101297.47;;;19.42;70.60
77583;BME280;66726;52.388;9.986;2023-06-22T04:50:46;101296.81;;;19.40;71.07
77583;BME280;66726;52.388;9.986;2023-06-22T04:53:18;101297.63;;;19.34;71.55
77583;BME280;66726;52.388;9.986;2023-06-22T04:55:50;101297.22;;;19.37;70.90
77583;BME280;66726;52.388;9.986;2023-06-22T04:58:23;101289.69;;;19.39;70.79
77583;BME280;66726;52.388;9.986;2023-06-22T05:00:59;101287.66;;;19.41;70.58
77583;BME280;66726;52.388;9.986;2023-06-22T05:03:32;101285.09;;;19.40;71.01
77583;BME280;66726;52.388;9.986;2023-06-22T05:06:04;101285.78;;;19.42;70.78
77583;BME280;66726;52.388;9.986;2023-06-22T05:08:35;101297.03;;;19.45;70.96
77583;BME280;66726;52.388;9.986;2023-06-22T05:11:08;101287.44;;;19.43;71.09
77583;BME280;66726;52.388;9.986;2023-06-22T05:13:39;101288.91;;;19.45;70.24
77583;BME280;66726;52.388;9.986;2023-06-22T05:16:11;101276.81;;;19.48;70.66
77583;BME280;66726;52.388;9.986;2023-06-22T05:18:45;101280.38;;;19.48;71.53
77583;BME280;66726;52.388;9.986;2023-06-22T05:21:17;101279.72;;;19.53;70.65
77583;BME280;66726;52.388;9.986;2023-06-22T05:23:49;101273.06;;;19.55;70.96
77583;BME280;66726;52.388;9.986;2023-06-22T05:26:21;101274.31;;;19.59;71.27
77583;BME280;66726;52.388;9.986;2023-06-22T05:28:55;101278.50;;;19.62;70.87
77583;BME280;66726;52.388;9.986;2023-06-22T05:31:27;101275.16;;;19.66;71.33
77583;BME280;66726;52.388;9.986;2023-06-22T05:34:01;101274.75;;;19.69;70.57
77583;BME280;66726;52.388;9.986;2023-06-22T05:36:33;101268.94;;;19.72;70.55
77583;BME280;66726;52.388;9.986;2023-06-22T05:39:14;101269.53;;;19.74;71.29
77583;BME280;66726;52.388;9.986;2023-06-22T05:41:47;101273.94;;;19.76;70.55
77583;BME280;66726;52.388;9.986;2023-06-22T05:44:19;101274.13;;;19.81;70.07
77583;BME280;66726;52.388;9.986;2023-06-22T05:46:51;101269.34;;;19.83;71.64
77583;BME280;66726;52.388;9.986;2023-06-22T05:49:24;101277.69;;;19.88;71.39
77583;BME280;66726;52.388;9.986;2023-06-22T05:52:03;101267.47;;;19.90;70.74
77583;BME280;66726;52.388;9.986;2023-06-22T05:54:35;101268.94;;;19.92;70.54
77583;BME280;66726;52.388;9.986;2023-06-22T05:57:07;101273.09;;;19.95;70.05
77583;BME280;66726;52.388;9.986;2023-06-22T05:59:39;101275.41;;;19.98;69.91
77583;BME280;66726;52.388;9.986;2023-06-22T06:02:11;101274.97;;;20.01;70.29
77583;BME280;66726;52.388;9.986;2023-06-22T06:04:45;101273.94;;;20.02;69.55
77583;BME280;66726;52.388;9.986;2023-06-22T06:07:17;101274.38;;;20.05;70.50
77583;BME280;66726;52.388;9.986;2023-06-22T06:09:49;101274.97;;;20.07;70.20
77583;BME280;66726;52.388;9.986;2023-06-22T06:12:21;101273.53;;;20.11;70.15
77583;BME280;66726;52.388;9.986;2023-06-22T06:14:53;101272.66;;;20.17;69.74
77583;BME280;66726;52.388;9.986;2023-06-22T06:17:26;101275.63;;;20.22;69.10
77583;BME280;66726;52.388;9.986;2023-06-22T06:20:01;101273.53;;;20.31;69.72
77583;BME280;66726;52.388;9.986;2023-06-22T06:22:35;101274.34;;;20.38;69.60
77583;BME280;66726;52.388;9.986;2023-06-22T06:25:09;101275.63;;;20.42;69.28
77583;BME280;66726;52.388;9.986;2023-06-22T06:27:48;101265.34;;;20.51;68.00
77583;BME280;66726;52.388;9.986;2023-06-22T06:30:22;101262.19;;;20.60;67.64
77583;BME280;66726;52.388;9.986;2023-06-22T06:32:54;101263.44;;;20.64;67.60
77583;BME280;66726;52.388;9.986;2023-06-22T06:35:27;101263.41;;;20.71;68.13
77583;BME280;66726;52.388;9.986;2023-06-22T06:38:00;101255.03;;;20.72;67.88
77583;BME280;66726;52.388;9.986;2023-06-22T06:40:32;101247.69;;;20.80;68.11
77583;BME280;66726;52.388;9.986;2023-06-22T06:43:05;101253.94;;;20.87;67.16
77583;BME280;66726;52.388;9.986;2023-06-22T06:45:36;101251.81;;;20.95;66.52
77583;BME280;66726;52.388;9.986;2023-06-22T06:48:09;101255.78;;;20.99;67.17
77583;BME280;66726;52.388;9.986;2023-06-22T06:50:42;101253.66;;;21.08;65.26
77583;BME280;66726;52.388;9.986;2023-06-22T06:53:14;101251.75;;;21.15;66.84
77583;BME280;66726;52.388;9.986;2023-06-22T06:55:46;101243.94;;;21.25;64.48
77583;BME280;66726;52.388;9.986;2023-06-22T06:58:18;101243.88;;;21.38;64.76
77583;BME280;66726;52.388;9.986;2023-06-22T07:00:50;101253.72;;;21.39;66.87
77583;BME280;66726;52.388;9.986;2023-06-22T07:03:22;101249.28;;;21.45;64.81
77583;BME280;66726;52.388;9.986;2023-06-22T07:05:56;101239.56;;;21.55;64.09
77583;BME280;66726;52.388;9.986;2023-06-22T07:08:28;101241.41;;;21.61;64.02
77583;BME280;66726;52.388;9.986;2023-06-22T07:11:00;101246.16;;;21.72;64.44
77583;BME280;66726;52.388;9.986;2023-06-22T07:13:32;101255.72;;;21.82;63.51
77583;BME280;66726;52.388;9.986;2023-06-22T07:16:04;101244.41;;;21.85;64.65
77583;BME280;66726;52.388;9.986;2023-06-22T07:18:36;101249.09;;;22.02;62.65
77583;BME280;66726;52.388;9.986;2023-06-22T07:21:09;101248.16;;;22.15;63.82
77583;BME280;66726;52.388;9.986;2023-06-22T07:23:41;101244.34;;;22.16;63.28
77583;BME280;66726;52.388;9.986;2023-06-22T07:26:13;101247.84;;;22.23;62.73
77583;BME280;66726;52.388;9.986;2023-06-22T07:28:46;101246.97;;;22.29;63.65
77583;BME280;66726;52.388;9.986;2023-06-22T07:31:18;101244.00;;;22.31;64.19
77583;BME280;66726;52.388;9.986;2023-06-22T07:33:51;101244.31;;;22.41;62.66
77583;BME280;66726;52.388;9.986;2023-06-22T07:36:25;101257.44;;;22.50;61.90
77583;BME280;66726;52.388;9.986;2023-06-22T07:38:57;101248.66;;;22.48;61.67
77583;BME280;66726;52.388;9.986;2023-06-22T07:41:29;101243.84;;;22.44;61.43
77583;BME280;66726;52.388;9.986;2023-06-22T07:44:01;101244.69;;;22.44;62.90
77583;BME280;66726;52.388;9.986;2023-06-22T07:46:33;101239.63;;;22.48;62.51
77583;BME280;66726;52.388;9.986;2023-06-22T07:49:05;101240.47;;;22.48;62.41
77583;BME280;66726;52.388;9.986;2023-06-22T07:51:41;101241.69;;;22.52;62.95
77583;BME280;66726;52.388;9.986;2023-06-22T07:54:14;101245.19;;;22.59;62.86
77583;BME280;66726;52.388;9.986;2023-06-22T07:56:47;101251.03;;;22.63;62.48
77583;BME280;66726;52.388;9.986;2023-06-22T07:59:19;101249.09;;;22.70;62.01
77583;BME280;66726;52.388;9.986;2023-06-22T08:01:51;101250.06;;;22.76;62.11
77583;BME280;66726;52.388;9.986;2023-06-22T08:04:23;101253.53;;;22.83;61.68
77583;BME280;66726;52.388;9.986;2023-06-22T08:06:57;101244.31;;;22.84;60.87
77583;BME280;66726;52.388;9.986;2023-06-22T08:09:30;101238.38;;;22.87;61.03
77583;BME280;66726;52.388;9.986;2023-06-22T08:12:02;101236.69;;;22.86;62.29
77583;BME280;66726;52.388;9.986;2023-06-22T08:14:35;101236.25;;;22.89;61.47
77583;BME280;66726;52.388;9.986;2023-06-22T08:17:07;101238.75;;;22.90;62.16
77583;BME280;66726;52.388;9.986;2023-06-22T08:19:41;101232.59;;;22.95;61.54
77583;BME280;66726;52.388;9.986;2023-06-22T08:22:15;101238.88;;;22.95;61.02
77583;BME280;66726;52.388;9.986;2023-06-22T08:24:47;101248.28;;;22.99;61.47
77583;BME280;66726;52.388;9.986;2023-06-22T08:27:20;101248.22;;;23.06;61.37
77583;BME280;66726;52.388;9.986;2023-06-22T08:29:54;101260.13;;;23.11;61.06
77583;BME280;66726;52.388;9.986;2023-06-22T08:32:32;101246.84;;;23.15;61.75
77583;BME280;66726;52.388;9.986;2023-06-22T08:35:04;101245.75;;;23.16;60.89
77583;BME280;66726;52.388;9.986;2023-06-22T08:37:41;101242.56;;;23.19;61.23
77583;BME280;66726;52.388;9.986;2023-06-22T08:40:14;101245.91;;;23.21;61.04
77583;BME280;66726;52.388;9.986;2023-06-22T08:42:46;101246.03;;;23.26;62.05
77583;BME280;66726;52.388;9.986;2023-06-22T08:45:18;101256.50;;;23.29;61.40
77583;BME280;66726;52.388;9.986;2023-06-22T08:47:52;101249.75;;;23.32;61.13
77583;BME280;66726;52.388;9.986;2023-06-22T08:50:24;101249.88;;;23.37;61.06
77583;BME280;66726;52.388;9.986;2023-06-22T08:52:57;101249.41;;;23.40;60.67
77583;BME280;66726;52.388;9.986;2023-06-22T08:55:29;101251.50;;;23.44;61.13
77583;BME280;66726;52.388;9.986;2023-06-22T08:58:01;101244.72;;;23.47;61.10
77583;BME280;66726;52.388;9.986;2023-06-22T09:00:36;101237.97;;;23.49;60.51
77583;BME280;66726;52.388;9.986;2023-06-22T09:03:09;101235.38;;;23.54;61.03
77583;BME280;66726;52.388;9.986;2023-06-22T09:05:42;101228.13;;;23.60;61.07
77583;BME280;66726;52.388;9.986;2023-06-22T09:08:15;101225.28;;;23.55;60.78
77583;BME280;66726;52.388;9.986;2023-06-22T09:10:47;101229.78;;;23.61;61.52
77583;BME280;66726;52.388;9.986;2023-06-22T09:13:19;101233.38;;;23.61;60.51
77583;BME280;66726;52.388;9.986;2023-06-22T09:15:52;101223.63;;;23.65;60.64
77583;BME280;66726;52.388;9.986;2023-06-22T09:18:24;101223.75;;;23.70;61.07
77583;BME280;66726;52.388;9.986;2023-06-22T09:20:56;101210.81;;;23.78;60.68
77583;BME280;66726;52.388;9.986;2023-06-22T09:23:29;101211.53;;;23.85;61.55
77583;BME280;66726;52.388;9.986;2023-06-22T09:26:03;101207.84;;;23.91;59.89
77583;BME280;66726;52.388;9.986;2023-06-22T09:28:35;101200.97;;;24.00;59.91
77583;BME280;66726;52.388;9.986;2023-06-22T09:31:07;101197.41;;;24.11;60.79
77583;BME280;66726;52.388;9.986;2023-06-22T09:33:39;101192.31;;;24.26;60.69
77583;BME280;66726;52.388;9.986;2023-06-22T09:36:11;101193.13;;;24.38;59.09
77583;BME280;66726;52.388;9.986;2023-06-22T09:38:45;101186.56;;;24.51;59.13
77583;BME280;66726;52.388;9.986;2023-06-22T09:41:17;101190.34;;;24.61;58.38
77583;BME280;66726;52.388;9.986;2023-06-22T09:43:48;101200.22;;;24.62;59.39
77583;BME280;66726;52.388;9.986;2023-06-22T09:46:20;101189.88;;;24.64;59.09
77583;BME280;66726;52.388;9.986;2023-06-22T09:48:55;101183.91;;;24.67;58.18
77583;BME280;66726;52.388;9.986;2023-06-22T09:51:27;101181.75;;;24.69;59.20
77583;BME280;66726;52.388;9.986;2023-06-22T09:54:00;101189.38;;;24.67;58.14
77583;BME280;66726;52.388;9.986;2023-06-22T09:56:32;101190.44;;;24.66;57.66
77583;BME280;66726;52.388;9.986;2023-06-22T09:59:04;101186.75;;;24.72;58.24
77583;BME280;66726;52.388;9.986;2023-06-22T10:01:48;101183.53;;;24.76;57.87
77583;BME280;66726;52.388;9.986;2023-06-22T10:04:20;101182.56;;;24.82;57.40
77583;BME280;66726;52.388;9.986;2023-06-22T10:06:52;101182.78;;;24.92;57.03
77583;BME280;66726;52.388;9.986;2023-06-22T10:09:25;101181.44;;;25.06;56.80
77583;BME280;66726;52.388;9.986;2023-06-22T10:11:57;101181.34;;;25.17;57.55
77583;BME280;66726;52.388;9.986;2023-06-22T10:14:29;101186.59;;;25.19;56.00
77583;BME280;66726;52.388;9.986;2023-06-22T10:17:02;101178.56;;;25.29;58.33
77583;BME280;66726;52.388;9.986;2023-06-22T10:19:34;101177.69;;;25.40;57.10
77583;BME280;66726;52.388;9.986;2023-06-22T10:22:08;101185.47;;;25.48;56.34
77583;BME280;66726;52.388;9.986;2023-06-22T10:24:41;101177.44;;;25.58;56.87
77583;BME280;66726;52.388;9.986;2023-06-22T10:27:15;101172.16;;;25.68;54.87
77583;BME280;66726;52.388;9.986;2023-06-22T10:29:46;101173.81;;;25.69;55.35
77583;BME280;66726;52.388;9.986;2023-06-22T10:32:18;101191.44;;;25.73;57.03
77583;BME280;66726;52.388;9.986;2023-06-22T10:34:50;101172.56;;;25.77;56.26
77583;BME280;66726;52.388;9.986;2023-06-22T10:37:23;101174.63;;;25.87;55.59
77583;BME280;66726;52.388;9.986;2023-06-22T10:39:56;101161.69;;;25.82;55.06
77583;BME280;66726;52.388;9.986;2023-06-22T10:42:28;101157.19;;;25.76;55.41
77583;BME280;66726;52.388;9.986;2023-06-22T10:45:00;101154.69;;;25.75;55.20
77583;BME280;66726;52.388;9.986;2023-06-22T10:47:33;101158.69;;;25.84;54.96
77583;BME280;66726;52.388;9.986;2023-06-22T10:50:06;101149.69;;;25.88;54.97
77583;BME280;66726;52.388;9.986;2023-06-22T10:52:38;101146.78;;;25.95;55.59
77583;BME280;66726;52.388;9.986;2023-06-22T10:55:12;101140.59;;;26.04;55.22
77583;BME280;66726;52.388;9.986;2023-06-22T10:57:44;101136.00;;;26.10;54.10
77583;BME280;66726;52.388;9.986;2023-06-22T11:00:19;101140.88;;;26.19;55.36
77583;BME280;66726;52.388;9.986;2023-06-22T11:02:51;101130.53;;;26.27;54.81
77583;BME280;66726;52.388;9.986;2023-06-22T11:05:23;101131.16;;;26.34;54.16
77583;BME280;66726;52.388;9.986;2023-06-22T11:07:56;101130.16;;;26.40;54.37
77583;BME280;66726;52.388;9.986;2023-06-22T11:10:29;101129.69;;;26.48;53.19
77583;BME280;66726;52.388;9.986;2023-06-22T11:13:01;101122.59;;;26.52;52.99
77583;BME280;66726;52.388;9.986;2023-06-22T11:15:34;101125.34;;;26.52;54.59
77583;BME280;66726;52.388;9.986;2023-06-22T11:18:09;101119.09;;;26.56;53.79
77583;BME280;66726;52.388;9.986;2023-06-22T11:20:41;101120.16;;;26.55;53.61
77583;BME280;66726;52.388;9.986;2023-06-22T11:23:13;101123.56;;;26.62;53.94
77583;BME280;66726;52.388;9.986;2023-06-22T11:25:46;101123.50;;;26.57;52.77
77583;BME280;66726;52.388;9.986;2023-06-22T11:28:18;101115.38;;;26.67;53.77
77583;BME280;66726;52.388;9.986;2023-06-22T11:30:51;101118.50;;;26.76;53.93
77583;BME280;66726;52.388;9.986;2023-06-22T11:33:23;101115.56;;;26.83;52.42
77583;BME280;66726;52.388;9.986;2023-06-22T11:35:55;101112.47;;;26.79;53.01
77583;BME280;66726;52.388;9.986;2023-06-22T11:38:27;101105.03;;;26.75;52.49
77583;BME280;66726;52.388;9.986;2023-06-22T11:41:02;101105.66;;;26.82;52.71
77583;BME280;66726;52.388;9.986;2023-06-22T11:43:33;101104.13;;;26.91;53.18
77583;BME280;66726;52.388;9.986;2023-06-22T11:46:06;101091.84;;;26.98;53.08
77583;BME280;66726;52.388;9.986;2023-06-22T11:48:38;101084.25;;;27.10;52.82
77583;BME280;66726;52.388;9.986;2023-06-22T11:51:10;101078.63;;;27.27;52.61
77583;BME280;66726;52.388;9.986;2023-06-22T11:53:42;101065.09;;;27.52;51.99
77583;BME280;66726;52.388;9.986;2023-06-22T11:56:15;101063.81;;;27.65;51.96
77583;BME280;66726;52.388;9.986;2023-06-22T11:58:47;101060.88;;;27.82;51.28
77583;BME280;66726;52.388;9.986;2023-06-22T12:01:19;101052.72;;;27.97;52.59
77583;BME280;66726;52.388;9.986;2023-06-22T12:03:51;101043.47;;;28.08;51.56
77583;BME280;66726;52.388;9.986;2023-06-22T12:06:23;101043.53;;;28.28;50.81
77583;BME280;66726;52.388;9.986;2023-06-22T12:08:55;101037.75;;;28.25;51.30
77583;BME280;66726;52.388;9.986;2023-06-22T12:11:28;101033.09;;;28.35;51.57
77583;BME280;66726;52.388;9.986;2023-06-22T12:14:00;101029.81;;;28.53;50.65
77583;BME280;66726;52.388;9.986;2023-06-22T12:16:33;101016.63;;;28.65;49.63
77583;BME280;66726;52.388;9.986;2023-06-22T12:19:05;101025.78;;;28.76;49.24
77583;BME280;66726;52.388;9.986;2023-06-22T12:21:39;101021.06;;;28.72;50.21
77583;BME280;66726;52.388;9.986;2023-06-22T12:24:11;101015.88;;;28.80;48.39
77583;BME280;66726;52.388;9.986;2023-06-22T12:26:44;101015.59;;;29.02;49.03
77583;BME280;66726;52.388;9.986;2023-06-22T12:29:16;101015.03;;;29.10;48.26
77583;BME280;66726;52.388;9.986;2023-06-22T12:31:48;101007.59;;;29.10;48.40
77583;BME280;66726;52.388;9.986;2023-06-22T12:34:20;101009.53;;;29.10;46.89
77583;BME280;66726;52.388;9.986;2023-06-22T12:36:52;101004.00;;;29.05;47.92
77583;BME280;66726;52.388;9.986;2023-06-22T12:39:25;100999.03;;;29.02;47.99
77583;BME280;66726;52.388;9.986;2023-06-22T12:41:58;100990.78;;;29.02;47.14
77583;BME280;66726;52.388;9.986;2023-06-22T12:44:30;101000.72;;;28.93;46.37
77583;BME280;66726;52.388;9.986;2023-06-22T12:47:01;100992.41;;;28.98;45.95
77583;BME280;66726;52.388;9.986;2023-06-22T12:49:33;100992.97;;;28.95;46.97
77583;BME280;66726;52.388;9.986;2023-06-22T12:52:10;100991.34;;;28.89;46.96
77583;BME280;66726;52.388;9.986;2023-06-22T12:54:42;100992.41;;;28.98;47.01
77583;BME280;66726;52.388;9.986;2023-06-22T12:57:26;100991.63;;;28.97;46.98
77583;BME280;66726;52.388;9.986;2023-06-22T12:59:58;100997.38;;;29.01;47.26
77583;BME280;66726;52.388;9.986;2023-06-22T13:02:31;100982.81;;;28.90;46.48
77583;BME280;66726;52.388;9.986;2023-06-22T13:05:03;100986.34;;;28.91;46.80
77583;BME280;66726;52.388;9.986;2023-06-22T13:07:35;100978.09;;;28.91;46.34
77583;BME280;66726;52.388;9.986;2023-06-22T13:10:09;100972.88;;;28.89;46.26
77583;BME280;66726;52.388;9.986;2023-06-22T13:12:42;100964.03;;;28.87;47.04
77583;BME280;66726;52.388;9.986;2023-06-22T13:15:14;100967.09;;;28.86;46.44
77583;BME280;66726;52.388;9.986;2023-06-22T13:17:46;100967.09;;;28.86;46.97
77583;BME280;66726;52.388;9.986;2023-06-22T13:20:18;100971.50;;;28.87;48.64